createdAt,value
2017-08-28T00:01:45.558Z,963.06
2017-08-28T00:02:26.119Z,963.04
2017-08-28T00:03:06.716Z,963.06
2017-08-28T00:03:47.301Z,963.05
2017-08-28T00:04:27.874Z,963.04
2017-08-28T00:05:08.450Z,963.06
2017-08-28T00:05:49.028Z,963.12
2017-08-28T00:06:29.621Z,963.1
2017-08-28T00:07:10.192Z,963.11
2017-08-28T00:07:50.780Z,963.14
2017-08-28T00:08:31.352Z,963.12
2017-08-28T00:09:12.016Z,963.14
2017-08-28T00:09:52.489Z,963.14
2017-08-28T00:10:33.061Z,963.2
2017-08-28T00:11:13.640Z,963.16
2017-08-28T00:11:54.228Z,963.16
2017-08-28T00:12:34.808Z,963.15
2017-08-28T00:13:15.390Z,963.14
2017-08-28T00:13:55.974Z,963.15
2017-08-28T00:14:36.553Z,963.13
2017-08-28T00:15:17.114Z,963.13
2017-08-28T00:15:57.679Z,963.17
2017-08-28T00:16:38.237Z,963.2
2017-08-28T00:17:18.821Z,963.2
2017-08-28T00:17:59.405Z,963.21
2017-08-28T00:18:39.959Z,963.2
2017-08-28T00:19:20.514Z,963.19
2017-08-28T00:20:01.103Z,963.21
2017-08-28T00:20:41.632Z,963.21
2017-08-28T00:21:22.222Z,963.2
2017-08-28T00:22:02.767Z,963.21
2017-08-28T00:22:43.324Z,963.19
2017-08-28T00:23:23.898Z,963.17
2017-08-28T00:24:04.454Z,963.17
2017-08-28T00:24:45.027Z,963.18
2017-08-28T00:25:25.604Z,963.19
2017-08-28T00:26:06.161Z,963.19
2017-08-28T00:26:46.734Z,963.17
2017-08-28T00:27:27.288Z,963.17
2017-08-28T00:29:40.231Z,963.14
2017-08-28T00:30:20.778Z,963.14
2017-08-28T00:31:01.363Z,963.17
2017-08-28T00:31:41.924Z,963.16
2017-08-28T00:32:22.495Z,963.17
2017-08-28T00:33:03.059Z,963.17
2017-08-28T00:33:43.612Z,963.12
2017-08-28T00:34:24.171Z,963.14
2017-08-28T00:35:04.733Z,963.16
2017-08-28T00:35:45.284Z,963.12
2017-08-28T00:36:25.851Z,963.11
2017-08-28T00:37:06.418Z,963.15
2017-08-28T00:37:46.987Z,963.12
2017-08-28T00:38:27.562Z,963.14
2017-08-28T00:39:08.083Z,963.14
2017-08-28T00:39:48.637Z,963.15
2017-08-28T00:40:29.207Z,963.18
2017-08-28T00:41:09.797Z,963.14
2017-08-28T00:41:50.364Z,963.16
2017-08-28T00:42:30.954Z,963.15
2017-08-28T00:43:11.500Z,963.17
2017-08-28T00:43:52.069Z,963.15
2017-08-28T00:44:32.641Z,963.21
2017-08-28T00:45:13.202Z,963.16
2017-08-28T00:45:53.749Z,963.22
2017-08-28T00:46:34.301Z,963.19
2017-08-28T00:47:14.858Z,963.18
2017-08-28T00:47:55.428Z,963.18
2017-08-28T00:48:35.998Z,963.16
2017-08-28T00:49:16.566Z,963.14
2017-08-28T00:49:57.145Z,963.13
2017-08-28T00:50:37.742Z,963.11
2017-08-28T00:51:18.283Z,963.13
2017-08-28T00:51:58.860Z,963.04
2017-08-28T00:52:39.431Z,963.1
2017-08-28T00:53:19.988Z,963.1
2017-08-28T00:54:00.571Z,963.07
2017-08-28T00:54:41.115Z,963.14
2017-08-28T00:55:21.648Z,963.11
2017-08-28T00:56:02.222Z,963.11
2017-08-28T00:56:42.799Z,963.06
2017-08-28T00:57:23.374Z,963.07
2017-08-28T00:58:03.949Z,963.06
2017-08-28T00:58:44.527Z,963.09
2017-08-28T00:59:25.111Z,963.07
2017-08-28T01:00:05.693Z,963.03
2017-08-28T01:00:46.293Z,963.03
2017-08-28T01:01:26.869Z,962.96
2017-08-28T01:02:07.446Z,963.02
2017-08-28T01:02:48.041Z,962.99
2017-08-28T01:03:28.582Z,962.97
2017-08-28T01:04:09.153Z,962.99
2017-08-28T01:04:49.741Z,962.99
2017-08-28T01:05:30.317Z,962.98
2017-08-28T01:06:10.912Z,962.95
2017-08-28T01:06:51.496Z,962.97
2017-08-28T01:07:32.076Z,962.95
2017-08-28T01:08:12.657Z,962.93
2017-08-28T01:08:53.233Z,963
2017-08-28T01:09:33.798Z,962.97
2017-08-28T01:10:14.364Z,962.92
2017-08-28T01:10:54.953Z,962.92
2017-08-28T01:11:35.529Z,962.96
2017-08-28T01:12:16.112Z,962.95
2017-08-28T01:12:56.694Z,962.9
2017-08-28T01:13:37.257Z,962.94
2017-08-28T01:14:17.843Z,962.93
2017-08-28T01:15:05.125Z,962.94
2017-08-28T01:15:45.703Z,962.93
2017-08-28T01:16:26.277Z,962.94
2017-08-28T01:17:06.866Z,962.96
2017-08-28T01:17:47.434Z,962.94
2017-08-28T01:18:28.016Z,962.98
2017-08-28T01:19:08.579Z,962.93
2017-08-28T01:19:49.147Z,962.95
2017-08-28T01:20:29.724Z,963
2017-08-28T01:21:10.295Z,963.01
2017-08-28T01:21:50.866Z,963
2017-08-28T01:22:31.445Z,963.04
2017-08-28T01:23:12.027Z,963.01
2017-08-28T01:23:52.593Z,963.02
2017-08-28T01:24:33.187Z,963.03
2017-08-28T01:25:13.758Z,963.02
2017-08-28T01:25:54.347Z,963.04
2017-08-28T01:26:34.921Z,963.05
2017-08-28T01:27:15.500Z,963.01
2017-08-28T01:27:56.076Z,963
2017-08-28T01:28:36.649Z,963
2017-08-28T01:29:17.230Z,962.99
2017-08-28T01:29:57.805Z,963.02
2017-08-28T01:30:38.385Z,962.97
2017-08-28T01:31:18.950Z,962.98
2017-08-28T01:31:59.616Z,962.97
2017-08-28T01:32:40.192Z,963.01
2017-08-28T01:33:20.760Z,963.04
2017-08-28T01:34:01.332Z,963.01
2017-08-28T01:34:41.919Z,962.98
2017-08-28T01:35:22.485Z,963.06
2017-08-28T01:36:03.061Z,963.01
2017-08-28T01:36:43.645Z,963.01
2017-08-28T01:37:24.213Z,963.02
2017-08-28T01:38:04.794Z,963.04
2017-08-28T01:38:45.377Z,963.06
2017-08-28T01:39:25.974Z,963.03
2017-08-28T01:40:06.535Z,963.05
2017-08-28T01:42:24.511Z,963.05
2017-08-28T01:43:05.094Z,963.06
2017-08-28T01:43:45.688Z,963.04
2017-08-28T01:44:26.251Z,963.05
2017-08-28T01:45:06.818Z,963.03
2017-08-28T01:45:47.383Z,963.08
2017-08-28T01:46:27.964Z,963.04
2017-08-28T01:47:08.541Z,963.05
2017-08-28T01:47:49.120Z,963.07
2017-08-28T01:48:29.700Z,963.07
2017-08-28T01:49:10.271Z,963.08
2017-08-28T01:49:50.833Z,963.09
2017-08-28T01:50:31.396Z,963.07
2017-08-28T01:51:11.982Z,963.06
2017-08-28T01:51:52.562Z,963.07
2017-08-28T01:52:33.143Z,963.06
2017-08-28T01:53:13.710Z,963.08
2017-08-28T01:53:54.308Z,963.05
2017-08-28T01:54:34.881Z,963.05
2017-08-28T01:55:15.436Z,963.05
2017-08-28T01:55:56.017Z,963.07
2017-08-28T01:56:36.592Z,963.06
2017-08-28T01:57:17.172Z,963.07
2017-08-28T01:57:57.742Z,963.06
2017-08-28T01:58:38.325Z,963.05
2017-08-28T01:59:18.894Z,963.07
2017-08-28T01:59:59.478Z,963.07
2017-08-28T02:00:40.057Z,963.03
2017-08-28T02:01:20.634Z,963.03
2017-08-28T02:02:01.212Z,963.07
2017-08-28T02:02:41.808Z,963.03
2017-08-28T02:03:22.375Z,963.04
2017-08-28T02:04:02.959Z,963.04
2017-08-28T02:04:43.546Z,963.04
2017-08-28T02:05:24.123Z,963.05
2017-08-28T02:06:04.692Z,963.05
2017-08-28T02:06:45.267Z,963.07
2017-08-28T02:07:25.832Z,963.09
2017-08-28T02:08:06.407Z,963.1
2017-08-28T02:08:46.997Z,963.1
2017-08-28T02:09:27.555Z,963.09
2017-08-28T02:10:08.132Z,963.08
2017-08-28T02:10:48.722Z,963.07
2017-08-28T02:11:29.291Z,963.07
2017-08-28T02:12:09.904Z,963.05
2017-08-28T02:12:50.491Z,963.05
2017-08-28T02:13:31.062Z,963.07
2017-08-28T02:14:11.640Z,963.06
2017-08-28T02:14:52.231Z,963.1
2017-08-28T02:15:32.818Z,963.07
2017-08-28T02:16:13.387Z,963.12
2017-08-28T02:16:53.973Z,963.08
2017-08-28T02:17:34.538Z,963.1
2017-08-28T02:18:15.127Z,963.16
2017-08-28T02:18:55.694Z,963.14
2017-08-28T02:19:36.271Z,963.14
2017-08-28T02:20:16.865Z,963.13
2017-08-28T02:20:57.437Z,963.1
2017-08-28T02:21:38.013Z,963.11
2017-08-28T02:22:18.581Z,963.09
2017-08-28T02:22:59.272Z,963.13
2017-08-28T02:23:39.771Z,963.1
2017-08-28T02:24:20.426Z,963.11
2017-08-28T02:25:01.046Z,963.12
2017-08-28T02:25:41.427Z,963.11
2017-08-28T02:26:22.061Z,963.08
2017-08-28T02:27:02.609Z,963.1
2017-08-28T02:27:43.261Z,963.13
2017-08-28T02:28:23.838Z,963.08
2017-08-28T02:29:04.459Z,963.08
2017-08-28T02:29:45.001Z,963.05
2017-08-28T02:30:25.524Z,963.08
2017-08-28T02:31:06.206Z,963.07
2017-08-28T02:31:46.694Z,963.07
2017-08-28T02:32:27.187Z,963.03
2017-08-28T02:33:07.779Z,963.06
2017-08-28T02:33:48.412Z,963.04
2017-08-28T02:34:28.942Z,963.06
2017-08-28T02:35:09.507Z,963.04
2017-08-28T02:35:50.076Z,963.04
2017-08-28T02:36:30.652Z,963.02
2017-08-28T02:37:11.220Z,963.01
2017-08-28T02:37:51.781Z,963.02
2017-08-28T02:38:32.369Z,963.03
2017-08-28T02:39:12.940Z,963.01
2017-08-28T02:39:53.497Z,962.96
2017-08-28T02:40:34.072Z,962.98
2017-08-28T02:41:14.633Z,962.92
2017-08-28T02:41:55.199Z,962.95
2017-08-28T02:42:35.764Z,962.97
2017-08-28T02:43:16.340Z,962.98
2017-08-28T02:43:56.923Z,962.98
2017-08-28T02:44:37.495Z,962.93
2017-08-28T02:45:18.121Z,962.97
2017-08-28T02:45:58.626Z,962.97
2017-08-28T02:46:39.174Z,962.97
2017-08-28T02:47:19.742Z,962.98
2017-08-28T02:48:00.331Z,962.92
2017-08-28T02:48:43.521Z,962.96
2017-08-28T02:49:24.093Z,962.92
2017-08-28T02:50:04.669Z,962.92
2017-08-28T02:50:45.250Z,962.91
2017-08-28T02:52:50.871Z,962.88
2017-08-28T02:53:31.439Z,962.87
2017-08-28T02:54:12.010Z,962.88
2017-08-28T02:54:52.588Z,962.9
2017-08-28T02:55:33.190Z,962.89
2017-08-28T02:56:13.756Z,962.88
2017-08-28T02:56:54.328Z,962.82
2017-08-28T02:57:34.913Z,962.87
2017-08-28T02:58:15.496Z,962.85
2017-08-28T02:58:56.076Z,962.81
2017-08-28T02:59:36.661Z,962.81
2017-08-28T03:00:17.224Z,962.84
2017-08-28T03:00:57.808Z,962.85
2017-08-28T03:01:38.358Z,962.8
2017-08-28T03:02:18.933Z,962.84
2017-08-28T03:02:59.516Z,962.81
2017-08-28T03:03:40.103Z,962.79
2017-08-28T03:04:20.648Z,962.81
2017-08-28T03:05:01.221Z,962.82
2017-08-28T03:05:41.789Z,962.78
2017-08-28T03:06:22.356Z,962.79
2017-08-28T03:07:02.934Z,962.84
2017-08-28T03:07:45.311Z,962.79
2017-08-28T03:08:25.874Z,962.8
2017-08-28T03:09:06.450Z,962.82
2017-08-28T03:09:47.055Z,962.84
2017-08-28T03:10:27.617Z,962.8
2017-08-28T03:11:08.190Z,962.79
2017-08-28T03:11:48.757Z,962.77
2017-08-28T03:12:29.319Z,962.8
2017-08-28T03:13:09.895Z,962.79
2017-08-28T03:13:50.466Z,962.82
2017-08-28T03:14:31.047Z,962.8
2017-08-28T03:15:11.646Z,962.79
2017-08-28T03:15:52.249Z,962.75
2017-08-28T03:16:32.850Z,962.76
2017-08-28T03:17:13.495Z,962.76
2017-08-28T03:17:54.070Z,962.78
2017-08-28T03:18:34.657Z,962.79
2017-08-28T03:19:15.240Z,962.73
2017-08-28T03:19:55.922Z,962.79
2017-08-28T03:20:36.546Z,962.75
2017-08-28T03:21:17.258Z,962.78
2017-08-28T03:21:58.075Z,962.76
2017-08-28T03:22:38.721Z,962.75
2017-08-28T03:23:19.295Z,962.75
2017-08-28T03:23:59.881Z,962.76
2017-08-28T03:24:40.445Z,962.74
2017-08-28T03:25:21.011Z,962.76
2017-08-28T03:26:01.606Z,962.73
2017-08-28T03:26:42.190Z,962.72
2017-08-28T03:27:22.870Z,962.72
2017-08-28T03:28:03.410Z,962.73
2017-08-28T03:28:44.166Z,962.71
2017-08-28T03:29:24.869Z,962.71
2017-08-28T03:30:05.531Z,962.74
2017-08-28T03:30:46.173Z,962.7
2017-08-28T03:31:26.850Z,962.7
2017-08-28T03:32:07.428Z,962.7
2017-08-28T03:32:47.998Z,962.65
2017-08-28T03:33:28.656Z,962.65
2017-08-28T03:34:09.493Z,962.67
2017-08-28T03:34:50.140Z,962.63
2017-08-28T03:35:30.708Z,962.64
2017-08-28T03:36:11.322Z,962.63
2017-08-28T03:36:52.025Z,962.62
2017-08-28T03:37:33.009Z,962.61
2017-08-28T03:38:13.829Z,962.61
2017-08-28T03:38:54.392Z,962.61
2017-08-28T03:39:35.226Z,962.64
2017-08-28T03:40:15.901Z,962.62
2017-08-28T03:40:56.659Z,962.61
2017-08-28T03:41:37.431Z,962.63
2017-08-28T03:42:17.975Z,962.57
2017-08-28T03:42:58.547Z,962.57
2017-08-28T03:43:39.204Z,962.65
2017-08-28T03:44:19.856Z,962.61
2017-08-28T03:45:00.526Z,962.63
2017-08-28T03:45:41.260Z,962.64
2017-08-28T03:46:21.970Z,962.63
2017-08-28T03:47:02.783Z,962.64
2017-08-28T03:47:43.368Z,962.67
2017-08-28T03:48:23.945Z,962.67
2017-08-28T03:49:04.496Z,962.7
2017-08-28T03:49:45.033Z,962.69
2017-08-28T03:50:25.608Z,962.72
2017-08-28T03:51:06.172Z,962.69
2017-08-28T03:51:46.755Z,962.7
2017-08-28T03:52:27.331Z,962.7
2017-08-28T03:53:07.925Z,962.69
2017-08-28T03:53:48.508Z,962.69
2017-08-28T03:54:29.087Z,962.72
2017-08-28T03:55:09.687Z,962.7
2017-08-28T03:55:50.242Z,962.66
2017-08-28T03:56:30.820Z,962.73
2017-08-28T03:57:11.388Z,962.7
2017-08-28T03:57:51.968Z,962.7
2017-08-28T03:58:32.533Z,962.7
2017-08-28T03:59:13.116Z,962.71
2017-08-28T04:00:08.334Z,962.72
2017-08-28T04:00:48.910Z,962.68
2017-08-28T04:01:29.477Z,962.71
2017-08-28T04:02:10.041Z,962.73
2017-08-28T04:02:50.623Z,962.71
2017-08-28T04:03:31.190Z,962.75
2017-08-28T04:04:11.760Z,962.77
2017-08-28T04:04:52.341Z,962.72
2017-08-28T04:05:32.928Z,962.7
2017-08-28T04:06:13.516Z,962.72
2017-08-28T04:06:54.106Z,962.71
2017-08-28T04:07:34.683Z,962.75
2017-08-28T04:08:15.264Z,962.75
2017-08-28T04:08:55.849Z,962.74
2017-08-28T04:09:36.427Z,962.75
2017-08-28T04:10:17.005Z,962.77
2017-08-28T04:10:57.580Z,962.78
2017-08-28T04:11:38.157Z,962.78
2017-08-28T04:12:18.724Z,962.82
2017-08-28T04:12:59.318Z,962.81
2017-08-28T04:13:39.883Z,962.77
2017-08-28T04:14:20.456Z,962.79
2017-08-28T04:15:01.025Z,962.83
2017-08-28T04:15:41.592Z,962.87
2017-08-28T04:16:36.851Z,962.85
2017-08-28T04:17:17.424Z,962.85
2017-08-28T04:17:57.995Z,962.87
2017-08-28T04:18:38.578Z,962.86
2017-08-28T04:19:19.153Z,962.86
2017-08-28T04:19:59.728Z,962.88
2017-08-28T04:20:40.310Z,962.88
2017-08-28T04:21:20.893Z,962.89
2017-08-28T04:22:01.475Z,962.89
2017-08-28T04:22:42.049Z,962.87
2017-08-28T04:23:22.640Z,962.91
2017-08-28T04:24:03.207Z,962.88
2017-08-28T04:24:43.782Z,962.91
2017-08-28T04:25:24.365Z,962.91
2017-08-28T04:26:04.945Z,962.89
2017-08-28T04:26:45.524Z,962.9
2017-08-28T04:27:26.110Z,962.9
2017-08-28T04:28:06.687Z,962.92
2017-08-28T04:28:47.274Z,962.87
2017-08-28T04:29:27.855Z,962.9
2017-08-28T04:30:08.440Z,962.9
2017-08-28T04:30:49.010Z,962.88
2017-08-28T04:31:29.600Z,962.88
2017-08-28T04:32:10.185Z,962.88
2017-08-28T04:32:50.780Z,962.86
2017-08-28T04:33:31.359Z,962.86
2017-08-28T04:34:11.932Z,962.87
2017-08-28T04:34:52.521Z,962.84
2017-08-28T04:35:33.090Z,962.83
2017-08-28T04:36:13.670Z,962.84
2017-08-28T04:36:54.258Z,962.86
2017-08-28T04:37:34.827Z,962.86
2017-08-28T04:38:15.411Z,962.88
2017-08-28T04:38:55.992Z,962.89
2017-08-28T04:39:36.563Z,962.87
2017-08-28T04:40:17.131Z,962.91
2017-08-28T04:40:57.707Z,962.9
2017-08-28T04:41:38.303Z,962.89
2017-08-28T04:42:18.878Z,962.9
2017-08-28T04:42:59.459Z,962.87
2017-08-28T04:43:40.049Z,962.85
2017-08-28T04:44:20.626Z,962.85
2017-08-28T04:45:01.203Z,962.89
2017-08-28T04:45:41.774Z,962.88
2017-08-28T04:46:22.361Z,962.88
2017-08-28T04:47:02.946Z,962.86
2017-08-28T04:47:43.528Z,962.88
2017-08-28T04:48:24.107Z,962.88
2017-08-28T04:49:04.708Z,962.91
2017-08-28T04:49:45.297Z,962.93
2017-08-28T04:50:25.872Z,962.91
2017-08-28T04:51:06.462Z,962.91
2017-08-28T04:51:47.036Z,962.95
2017-08-28T04:52:27.615Z,962.97
2017-08-28T04:53:08.197Z,962.97
2017-08-28T04:53:48.781Z,962.95
2017-08-28T04:54:29.358Z,962.95
2017-08-28T04:55:09.943Z,962.93
2017-08-28T04:55:50.510Z,962.93
2017-08-28T04:56:31.094Z,962.95
2017-08-28T04:57:11.666Z,962.97
2017-08-28T04:57:52.254Z,962.98
2017-08-28T04:58:32.844Z,962.97
2017-08-28T04:59:13.426Z,962.97
2017-08-28T04:59:53.995Z,962.93
2017-08-28T05:00:34.566Z,962.96
2017-08-28T05:01:15.138Z,962.97
2017-08-28T05:01:55.725Z,962.98
2017-08-28T05:02:36.310Z,962.99
2017-08-28T05:03:16.894Z,963
2017-08-28T05:03:57.469Z,963.03
2017-08-28T05:04:38.051Z,963
2017-08-28T05:05:18.632Z,963
2017-08-28T05:05:59.211Z,963.01
2017-08-28T05:06:39.786Z,963.01
2017-08-28T05:07:20.369Z,963.02
2017-08-28T05:08:00.949Z,963.02
2017-08-28T05:08:41.540Z,963.03
2017-08-28T05:09:22.126Z,963.04
2017-08-28T05:10:02.703Z,962.99
2017-08-28T05:10:43.275Z,963
2017-08-28T05:11:23.858Z,962.97
2017-08-28T05:12:04.452Z,962.99
2017-08-28T05:12:45.042Z,962.97
2017-08-28T05:13:25.626Z,962.97
2017-08-28T05:14:06.207Z,962.99
2017-08-28T05:14:46.784Z,963.02
2017-08-28T05:15:27.362Z,963
2017-08-28T05:16:07.948Z,963.02
2017-08-28T05:17:01.337Z,963.06
2017-08-28T05:17:41.914Z,963.04
2017-08-28T05:18:22.487Z,963.02
2017-08-28T05:19:03.065Z,963.03
2017-08-28T05:19:43.638Z,963.03
2017-08-28T05:20:24.221Z,963
2017-08-28T05:21:04.809Z,963.02
2017-08-28T05:21:45.376Z,962.97
2017-08-28T05:22:25.955Z,962.97
2017-08-28T05:23:06.534Z,962.97
2017-08-28T05:23:47.123Z,962.98
2017-08-28T05:24:27.704Z,962.96
2017-08-28T05:25:08.268Z,962.95
2017-08-28T05:25:48.843Z,962.98
2017-08-28T05:26:29.420Z,962.95
2017-08-28T05:27:10.003Z,962.93
2017-08-28T05:27:50.564Z,963.01
2017-08-28T05:28:31.153Z,963.05
2017-08-28T05:29:11.731Z,963.03
2017-08-28T05:29:52.312Z,963.02
2017-08-28T05:30:32.877Z,963.01
2017-08-28T05:31:13.465Z,963.05
2017-08-28T05:31:54.043Z,962.99
2017-08-28T05:32:34.627Z,963.01
2017-08-28T05:33:15.212Z,962.98
2017-08-28T05:33:55.799Z,962.92
2017-08-28T05:34:36.375Z,962.94
2017-08-28T05:35:16.958Z,962.95
2017-08-28T05:35:57.543Z,962.93
2017-08-28T05:36:38.113Z,962.9
2017-08-28T05:37:18.694Z,962.89
2017-08-28T05:37:59.269Z,962.89
2017-08-28T05:38:39.851Z,962.89
2017-08-28T05:39:20.429Z,962.9
2017-08-28T05:40:01.015Z,962.9
2017-08-28T05:40:41.603Z,962.85
2017-08-28T05:41:22.183Z,962.87
2017-08-28T05:42:02.777Z,962.86
2017-08-28T05:42:43.361Z,962.85
2017-08-28T05:43:23.948Z,962.84
2017-08-28T05:44:04.529Z,962.82
2017-08-28T05:44:45.107Z,962.84
2017-08-28T05:45:25.693Z,962.82
2017-08-28T05:46:06.285Z,962.85
2017-08-28T05:46:46.865Z,962.84
2017-08-28T05:47:27.454Z,962.88
2017-08-28T05:48:08.043Z,962.87
2017-08-28T05:48:48.622Z,962.85
2017-08-28T05:49:29.207Z,962.92
2017-08-28T05:50:09.794Z,962.93
2017-08-28T05:50:50.373Z,962.92
2017-08-28T05:51:30.958Z,962.94
2017-08-28T05:52:11.548Z,962.95
2017-08-28T05:52:52.129Z,962.96
2017-08-28T05:53:32.693Z,963
2017-08-28T05:55:50.664Z,962.96
2017-08-28T05:56:31.241Z,962.97
2017-08-28T05:57:11.824Z,962.98
2017-08-28T05:57:52.407Z,962.96
2017-08-28T05:58:32.989Z,962.96
2017-08-28T05:59:13.816Z,963
2017-08-28T05:59:54.407Z,962.99
2017-08-28T06:00:34.966Z,962.99
2017-08-28T06:01:15.546Z,963.04
2017-08-28T06:01:56.135Z,963.02
2017-08-28T06:02:36.715Z,963.08
2017-08-28T06:03:17.300Z,963.06
2017-08-28T06:03:57.878Z,963.08
2017-08-28T06:04:38.434Z,963.1
2017-08-28T06:05:19.018Z,963.13
2017-08-28T06:05:59.603Z,963.2
2017-08-28T06:06:40.184Z,963.21
2017-08-28T06:07:20.764Z,963.17
2017-08-28T06:08:01.352Z,963.17
2017-08-28T06:08:41.942Z,963.16
2017-08-28T06:09:22.526Z,963.13
2017-08-28T06:10:03.108Z,963.16
2017-08-28T06:10:43.683Z,963.14
2017-08-28T06:11:24.266Z,963.17
2017-08-28T06:12:04.844Z,963.22
2017-08-28T06:12:45.441Z,963.31
2017-08-28T06:13:26.036Z,963.32
2017-08-28T06:14:06.607Z,963.36
2017-08-28T06:14:47.185Z,963.39
2017-08-28T06:15:27.770Z,963.41
2017-08-28T06:16:08.355Z,963.38
2017-08-28T06:16:48.938Z,963.4
2017-08-28T06:17:29.509Z,963.36
2017-08-28T06:18:10.093Z,963.4
2017-08-28T06:18:50.681Z,963.43
2017-08-28T06:19:31.265Z,963.43
2017-08-28T06:20:11.830Z,963.46
2017-08-28T06:20:52.400Z,963.43
2017-08-28T06:21:32.989Z,963.33
2017-08-28T06:22:13.571Z,963.17
2017-08-28T06:22:54.165Z,963.03
2017-08-28T06:23:34.751Z,962.89
2017-08-28T06:24:15.330Z,962.84
2017-08-28T06:24:55.917Z,962.92
2017-08-28T06:25:36.501Z,962.97
2017-08-28T06:26:17.082Z,963.01
2017-08-28T06:26:57.656Z,963.05
2017-08-28T06:27:38.230Z,963.08
2017-08-28T06:28:18.820Z,963.06
2017-08-28T06:28:59.409Z,963.01
2017-08-28T06:29:39.986Z,962.91
2017-08-28T06:30:20.576Z,962.91
2017-08-28T06:31:01.154Z,962.94
2017-08-28T06:31:41.734Z,962.99
2017-08-28T06:32:22.300Z,962.97
2017-08-28T06:33:02.876Z,963.01
2017-08-28T06:33:43.460Z,963.09
2017-08-28T06:34:24.045Z,963.17
2017-08-28T06:35:04.629Z,963.19
2017-08-28T06:35:45.206Z,963.22
2017-08-28T06:36:25.790Z,963.23
2017-08-28T06:37:06.345Z,963.21
2017-08-28T06:37:46.917Z,963.19
2017-08-28T06:38:27.498Z,963.18
2017-08-28T06:39:08.086Z,963.13
2017-08-28T06:39:48.650Z,963.11
2017-08-28T06:40:29.215Z,963.01
2017-08-28T06:41:09.806Z,962.98
2017-08-28T06:41:50.368Z,962.94
2017-08-28T06:42:30.944Z,962.99
2017-08-28T06:43:11.534Z,962.93
2017-08-28T06:43:52.107Z,962.98
2017-08-28T06:45:44.746Z,963.06
2017-08-28T06:46:25.319Z,963.09
2017-08-28T06:47:05.910Z,963.11
2017-08-28T06:47:46.507Z,963.16
2017-08-28T06:48:27.065Z,963.17
2017-08-28T06:49:07.656Z,963.2
2017-08-28T06:49:48.224Z,963.18
2017-08-28T06:50:28.810Z,963.22
2017-08-28T06:51:09.386Z,963.21
2017-08-28T06:51:49.972Z,963.21
2017-08-28T06:52:30.556Z,963.18
2017-08-28T06:53:11.139Z,963.18
2017-08-28T06:53:51.707Z,963.17
2017-08-28T06:54:32.281Z,963.25
2017-08-28T06:55:12.861Z,963.29
2017-08-28T06:55:53.445Z,963.29
2017-08-28T06:56:34.000Z,963.32
2017-08-28T06:57:14.567Z,963.34
2017-08-28T06:57:55.151Z,963.39
2017-08-28T06:58:35.734Z,963.41
2017-08-28T06:59:16.321Z,963.4
2017-08-28T06:59:56.897Z,963.38
2017-08-28T07:00:37.472Z,963.37
2017-08-28T07:01:18.054Z,963.33
2017-08-28T07:01:58.643Z,963.28
2017-08-28T07:02:39.220Z,963.3
2017-08-28T07:03:19.791Z,963.23
2017-08-28T07:04:00.383Z,963.19
2017-08-28T07:04:40.960Z,963.19
2017-08-28T07:05:21.541Z,963.19
2017-08-28T07:06:02.121Z,963.18
2017-08-28T07:06:42.703Z,963.2
2017-08-28T07:07:23.295Z,963.22
2017-08-28T07:08:03.853Z,963.18
2017-08-28T07:08:44.433Z,963.18
2017-08-28T07:09:25.007Z,963.22
2017-08-28T07:10:05.582Z,963.19
2017-08-28T07:10:46.179Z,963.22
2017-08-28T07:11:26.761Z,963.2
2017-08-28T07:12:07.350Z,963.19
2017-08-28T07:12:49.643Z,963.14
2017-08-28T07:13:30.723Z,963.09
2017-08-28T07:14:11.308Z,963.11
2017-08-28T07:14:51.896Z,963.11
2017-08-28T07:15:47.392Z,963.13
2017-08-28T07:16:27.987Z,963.14
2017-08-28T07:17:10.395Z,963.21
2017-08-28T07:17:50.986Z,963.21
2017-08-28T07:18:31.568Z,963.22
2017-08-28T07:19:12.159Z,963.3
2017-08-28T07:19:52.742Z,963.33
2017-08-28T07:20:33.322Z,963.38
2017-08-28T07:21:13.900Z,963.4
2017-08-28T07:21:54.481Z,963.45
2017-08-28T07:22:35.079Z,963.4
2017-08-28T07:23:16.397Z,963.42
2017-08-28T07:23:56.974Z,963.44
2017-08-28T07:24:37.555Z,963.42
2017-08-28T07:25:18.138Z,963.5
2017-08-28T07:25:58.718Z,963.59
2017-08-28T07:26:39.292Z,963.67
2017-08-28T07:27:19.876Z,963.68
2017-08-28T07:28:00.456Z,963.67
2017-08-28T07:28:41.027Z,963.62
2017-08-28T07:29:21.603Z,963.56
2017-08-28T07:30:02.890Z,963.52
2017-08-28T07:30:43.462Z,963.52
2017-08-28T07:31:24.050Z,963.48
2017-08-28T07:32:05.240Z,963.51
2017-08-28T07:32:45.829Z,963.46
2017-08-28T07:33:26.413Z,963.42
2017-08-28T07:34:06.989Z,963.38
2017-08-28T07:34:49.480Z,963.38
2017-08-28T07:35:30.037Z,963.39
2017-08-28T07:36:10.640Z,963.42
2017-08-28T07:36:53.135Z,963.41
2017-08-28T07:37:33.718Z,963.45
2017-08-28T07:38:14.298Z,963.45
2017-08-28T07:38:54.882Z,963.46
2017-08-28T07:39:35.461Z,963.52
2017-08-28T07:40:16.033Z,963.55
2017-08-28T07:42:13.759Z,963.6
2017-08-28T07:42:54.335Z,963.58
2017-08-28T07:43:34.917Z,963.6
2017-08-28T07:44:15.508Z,963.58
2017-08-28T07:44:56.092Z,963.56
2017-08-28T07:45:36.658Z,963.56
2017-08-28T07:46:17.225Z,963.48
2017-08-28T07:46:57.791Z,963.43
2017-08-28T07:47:38.381Z,963.4
2017-08-28T07:48:18.963Z,963.38
2017-08-28T07:48:59.544Z,963.37
2017-08-28T07:49:40.130Z,963.37
2017-08-28T07:50:20.718Z,963.39
2017-08-28T07:51:01.311Z,963.39
2017-08-28T07:51:41.906Z,963.43
2017-08-28T07:52:22.469Z,963.5
2017-08-28T07:53:03.059Z,963.56
2017-08-28T07:53:43.617Z,963.58
2017-08-28T07:54:24.195Z,963.6
2017-08-28T07:55:04.766Z,963.61
2017-08-28T07:55:45.345Z,963.64
2017-08-28T07:56:25.916Z,963.61
2017-08-28T07:57:06.508Z,963.62
2017-08-28T07:57:47.090Z,963.63
2017-08-28T07:58:27.677Z,963.69
2017-08-28T07:59:08.263Z,963.69
2017-08-28T07:59:48.849Z,963.73
2017-08-28T08:00:29.428Z,963.69
2017-08-28T08:01:10.013Z,963.72
2017-08-28T08:01:50.596Z,963.76
2017-08-28T08:02:31.162Z,963.72
2017-08-28T08:03:11.747Z,963.73
2017-08-28T08:03:52.328Z,963.68
2017-08-28T08:04:32.899Z,963.69
2017-08-28T08:05:13.468Z,963.67
2017-08-28T08:05:54.046Z,963.7
2017-08-28T08:06:34.625Z,963.7
2017-08-28T08:07:15.193Z,963.69
2017-08-28T08:07:55.762Z,963.69
2017-08-28T08:08:36.331Z,963.68
2017-08-28T08:09:16.906Z,963.68
2017-08-28T08:09:57.502Z,963.71
2017-08-28T08:10:38.071Z,963.72
2017-08-28T08:11:18.661Z,963.71
2017-08-28T08:11:59.233Z,963.73
2017-08-28T08:12:39.819Z,963.73
2017-08-28T08:13:20.387Z,963.76
2017-08-28T08:14:00.964Z,963.77
2017-08-28T08:14:41.526Z,963.76
2017-08-28T08:15:22.101Z,963.77
2017-08-28T08:16:02.679Z,963.83
2017-08-28T08:16:43.258Z,963.8
2017-08-28T08:17:23.831Z,963.84
2017-08-28T08:18:04.411Z,963.88
2017-08-28T08:18:44.997Z,963.9
2017-08-28T08:19:25.551Z,963.93
2017-08-28T08:20:06.118Z,963.93
2017-08-28T08:20:46.700Z,963.94
2017-08-28T08:21:27.269Z,963.93
2017-08-28T08:22:07.839Z,963.87
2017-08-28T08:22:48.415Z,963.88
2017-08-28T08:23:28.963Z,963.83
2017-08-28T08:24:09.571Z,963.79
2017-08-28T08:24:50.138Z,963.74
2017-08-28T08:25:30.697Z,963.73
2017-08-28T08:26:11.279Z,963.68
2017-08-28T08:26:51.862Z,963.66
2017-08-28T08:27:32.426Z,963.66
2017-08-28T08:28:13.020Z,963.65
2017-08-28T08:28:53.560Z,963.66
2017-08-28T08:29:34.130Z,963.7
2017-08-28T08:30:14.667Z,963.69
2017-08-28T08:30:55.233Z,963.76
2017-08-28T08:31:35.774Z,963.73
2017-08-28T08:32:16.338Z,963.73
2017-08-28T08:32:56.887Z,963.82
2017-08-28T08:33:37.446Z,963.91
2017-08-28T08:34:18.002Z,964.14
2017-08-28T08:34:58.577Z,964.26
2017-08-28T08:35:39.138Z,964.23
2017-08-28T08:36:19.682Z,964.32
2017-08-28T08:37:00.231Z,964.23
2017-08-28T08:37:40.831Z,964.09
2017-08-28T08:38:36.143Z,964.1
2017-08-28T08:39:16.711Z,964.04
2017-08-28T08:39:57.283Z,964.07